createdAt,value
2018-09-04T00:02:27.406Z,21.77
2018-09-04T00:04:55.928Z,21.70
2018-09-04T00:07:24.332Z,21.55
2018-09-04T00:09:53.254Z,21.42
2018-09-04T00:12:21.623Z,21.53
2018-09-04T00:14:50.080Z,21.57
2018-09-04T00:17:18.529Z,21.43
2018-09-04T00:19:47.009Z,21.34
2018-09-04T00:22:15.491Z,21.26
2018-09-04T00:24:44.106Z,21.13
2018-09-04T00:27:12.486Z,21.10
2018-09-04T00:29:40.977Z,21.18
2018-09-04T00:32:09.365Z,21.37
2018-09-04T00:34:37.953Z,21.34
2018-09-04T00:37:06.392Z,21.21
2018-09-04T00:39:34.894Z,21.21
2018-09-04T00:42:03.421Z,21.09
2018-09-04T00:44:31.799Z,21.20
2018-09-04T00:47:00.210Z,21.15
2018-09-04T00:49:28.638Z,21.29
2018-09-04T00:51:57.033Z,21.40
2018-09-04T00:54:25.495Z,21.31
2018-09-04T00:56:53.915Z,21.26
2018-09-04T00:59:22.313Z,21.10
2018-09-04T01:01:50.709Z,21.28
2018-09-04T01:04:19.166Z,21.45
2018-09-04T01:06:47.570Z,21.37
2018-09-04T01:09:19.387Z,21.60
2018-09-04T01:11:47.923Z,21.60
2018-09-04T01:14:16.372Z,21.55
2018-09-04T01:16:45.520Z,21.58
2018-09-04T01:19:14.301Z,21.47
2018-09-04T01:21:42.793Z,21.39
2018-09-04T01:24:11.737Z,21.24
2018-09-04T01:26:40.296Z,21.13
2018-09-04T01:29:09.279Z,21.24
2018-09-04T01:31:37.702Z,21.26
2018-09-04T01:34:06.122Z,21.33
2018-09-04T01:36:34.537Z,21.21
2018-09-04T01:39:03.435Z,21.21
2018-09-04T01:41:32.002Z,21.13
2018-09-04T01:44:00.511Z,21.05
2018-09-04T01:46:29.097Z,21.17
2018-09-04T01:48:57.566Z,21.29
2018-09-04T01:51:25.925Z,21.28
2018-09-04T01:54:05.175Z,21.14
2018-09-04T01:56:33.624Z,21.07
2018-09-04T01:59:02.158Z,21.03
2018-09-04T02:01:30.638Z,21.03
2018-09-04T02:03:59.118Z,20.93
2018-09-04T02:06:27.550Z,20.90
2018-09-04T02:08:55.925Z,20.96
2018-09-04T02:11:24.407Z,20.93
2018-09-04T02:13:52.846Z,20.97
2018-09-04T02:16:21.341Z,20.78
2018-09-04T02:18:50.040Z,20.48
2018-09-04T02:21:18.455Z,20.63
2018-09-04T02:23:46.940Z,20.69
2018-09-04T02:26:15.387Z,20.90
2018-09-04T02:28:43.817Z,20.72
2018-09-04T02:31:12.246Z,20.63
2018-09-04T02:33:41.329Z,20.68
2018-09-04T02:36:09.752Z,20.70
2018-09-04T02:38:38.631Z,20.55
2018-09-04T02:41:07.446Z,20.60
2018-09-04T02:43:35.930Z,20.62
2018-09-04T02:46:04.708Z,20.57
2018-09-04T02:48:33.275Z,20.61
2018-09-04T02:51:07.877Z,20.63
2018-09-04T02:53:36.379Z,20.43
2018-09-04T02:56:05.127Z,20.26
2018-09-04T02:58:33.616Z,20.26
2018-09-04T03:01:02.226Z,20.35
2018-09-04T03:03:30.789Z,20.25
2018-09-04T03:05:59.335Z,20.39
2018-09-04T03:08:28.337Z,20.52
2018-09-04T03:10:56.659Z,20.38
2018-09-04T03:13:25.024Z,20.54
2018-09-04T03:15:53.534Z,20.43
2018-09-04T03:18:22.457Z,20.25
2018-09-04T03:20:50.856Z,20.25
2018-09-04T03:23:19.285Z,20.37
2018-09-04T03:25:47.938Z,20.38
2018-09-04T03:28:16.610Z,20.22
2018-09-04T03:30:45.028Z,20.25
2018-09-04T03:33:13.465Z,20.19
2018-09-04T03:35:41.833Z,20.08
2018-09-04T03:38:10.251Z,20.09
2018-09-04T03:40:38.625Z,20.17
2018-09-04T03:43:07.693Z,20.33
2018-09-04T03:45:36.609Z,20.00
2018-09-04T03:48:05.326Z,20.14
2018-09-04T03:50:33.688Z,20.18
2018-09-04T03:53:02.037Z,20.25
2018-09-04T03:55:30.459Z,20.20
2018-09-04T03:57:58.834Z,20.35
2018-09-04T04:00:27.294Z,20.33
2018-09-04T04:02:55.664Z,20.30
2018-09-04T04:05:24.173Z,20.28
2018-09-04T04:07:52.619Z,20.39
2018-09-04T04:10:21.006Z,20.40
2018-09-04T04:12:49.384Z,20.41
2018-09-04T04:15:18.265Z,20.39
2018-09-04T04:17:46.656Z,20.66
2018-09-04T04:20:15.130Z,20.57
2018-09-04T04:22:43.662Z,20.74
2018-09-04T04:25:12.119Z,20.36
2018-09-04T04:27:41.025Z,20.41
2018-09-04T04:30:09.477Z,20.28
2018-09-04T04:32:37.952Z,20.37
2018-09-04T04:35:06.845Z,20.41
2018-09-04T04:37:35.302Z,20.18
2018-09-04T04:40:03.917Z,20.26
2018-09-04T04:42:32.280Z,20.11
2018-09-04T04:45:00.655Z,20.21
2018-09-04T04:47:34.223Z,20.01
2018-09-04T04:50:02.614Z,20.22
2018-09-04T04:52:30.990Z,20.61
2018-09-04T04:54:59.379Z,20.45
2018-09-04T04:57:27.789Z,20.88
2018-09-04T04:59:56.193Z,20.68
2018-09-04T05:02:24.613Z,20.40
2018-09-04T05:04:53.040Z,20.62
2018-09-04T05:07:21.542Z,20.38
2018-09-04T05:09:49.925Z,20.48
2018-09-04T05:12:18.336Z,20.76
2018-09-04T05:14:46.810Z,20.74
2018-09-04T05:17:15.265Z,20.40
2018-09-04T05:19:43.673Z,20.74
2018-09-04T05:22:12.132Z,20.95
2018-09-04T05:24:40.605Z,21.09
2018-09-04T05:27:09.050Z,21.34
2018-09-04T05:29:37.728Z,21.08
2018-09-04T05:32:11.564Z,20.99
2018-09-04T05:34:40.030Z,21.30
2018-09-04T05:37:08.420Z,21.35
2018-09-04T05:39:36.894Z,21.35
2018-09-04T05:42:10.696Z,21.39
2018-09-04T05:44:39.108Z,21.79
2018-09-04T05:47:07.610Z,21.80
2018-09-04T05:49:36.014Z,21.80
2018-09-04T05:52:04.638Z,21.88
2018-09-04T05:54:33.121Z,22.08
2018-09-04T05:57:01.757Z,21.85
2018-09-04T05:59:30.460Z,22.31
2018-09-04T06:01:59.045Z,22.33
2018-09-04T06:04:27.478Z,22.38
2018-09-04T06:06:55.865Z,22.74
2018-09-04T06:09:24.236Z,22.57
2018-09-04T06:11:52.578Z,22.65
2018-09-04T06:14:21.012Z,22.47
2018-09-04T06:16:49.605Z,22.89
2018-09-04T06:19:18.082Z,22.93
2018-09-04T06:21:46.530Z,23.03
2018-09-04T06:24:14.978Z,23.18
2018-09-04T06:26:43.416Z,22.99
2018-09-04T06:29:11.832Z,23.07
2018-09-04T06:31:40.203Z,23.09
2018-09-04T06:34:08.782Z,22.77
2018-09-04T06:36:37.371Z,22.96
2018-09-04T06:39:08.850Z,22.98
2018-09-04T06:41:37.292Z,23.22
2018-09-04T06:44:05.714Z,23.34
2018-09-04T06:46:34.169Z,23.75
2018-09-04T06:49:02.657Z,23.66
2018-09-04T06:51:31.036Z,23.87
2018-09-04T06:53:59.486Z,24.12
2018-09-04T06:56:28.847Z,24.17
2018-09-04T06:58:57.217Z,24.32
2018-09-04T07:01:25.602Z,24.32
2018-09-04T07:03:54.022Z,24.41
2018-09-04T07:06:22.436Z,24.57
2018-09-04T07:08:50.898Z,24.81
2018-09-04T07:11:19.429Z,24.73
2018-09-04T07:13:48.011Z,24.82
2018-09-04T07:16:16.584Z,25.04
2018-09-04T07:18:44.970Z,25.20
2018-09-04T07:21:13.479Z,25.03
2018-09-04T07:23:41.903Z,25.24
2018-09-04T07:26:10.405Z,25.25
2018-09-04T07:28:38.838Z,25.45
2018-09-04T07:31:07.772Z,25.21
2018-09-04T07:33:36.876Z,25.46
2018-09-04T07:36:05.619Z,25.72
2018-09-04T07:38:34.073Z,25.41
2018-09-04T07:41:02.462Z,26.03
2018-09-04T07:43:30.842Z,26.11
2018-09-04T07:45:59.255Z,26.30
2018-09-04T07:48:27.703Z,26.38
2018-09-04T07:50:56.111Z,26.17
2018-09-04T07:53:24.574Z,26.27
2018-09-04T07:55:52.942Z,26.72
2018-09-04T07:58:21.335Z,26.27
2018-09-04T08:00:49.821Z,26.15
2018-09-04T08:03:18.167Z,26.55
2018-09-04T08:05:46.778Z,26.56
2018-09-04T08:08:15.226Z,26.85
2018-09-04T08:10:43.649Z,26.38
2018-09-04T08:13:12.149Z,26.22
2018-09-04T08:15:40.578Z,26.50
2018-09-04T08:18:08.965Z,25.35
2018-09-04T08:20:40.384Z,26.04
2018-09-04T08:23:08.668Z,26.56
2018-09-04T08:25:37.191Z,26.73
2018-09-04T08:28:05.785Z,26.70
2018-09-04T08:30:34.284Z,26.32
2018-09-04T08:33:03.360Z,26.86
2018-09-04T08:35:31.773Z,26.74
2018-09-04T08:38:01.224Z,26.99
2018-09-04T08:40:31.409Z,27.07
2018-09-04T08:42:59.775Z,27.23
2018-09-04T08:45:28.631Z,27.46
2018-09-04T08:47:59.945Z,27.51
2018-09-04T08:50:29.585Z,27.55
2018-09-04T08:52:58.949Z,28.03
2018-09-04T08:55:27.584Z,27.80
2018-09-04T08:57:55.994Z,28.12
2018-09-04T09:00:24.466Z,27.50
2018-09-04T09:02:52.828Z,27.54
2018-09-04T09:05:21.220Z,27.86
2018-09-04T09:07:49.579Z,27.94
2018-09-04T09:10:18.225Z,27.49
2018-09-04T09:12:46.674Z,27.40
2018-09-04T09:15:15.185Z,26.82
2018-09-04T09:17:43.568Z,26.89
2018-09-04T09:20:11.940Z,27.68
2018-09-04T09:22:40.397Z,27.98
2018-09-04T09:25:08.849Z,27.88
2018-09-04T09:27:37.318Z,27.92
2018-09-04T09:30:05.881Z,27.99
2018-09-04T09:32:34.320Z,27.51
2018-09-04T09:35:02.737Z,27.80
2018-09-04T09:37:31.855Z,27.94
2018-09-04T09:40:00.286Z,28.33
2018-09-04T09:42:28.689Z,27.81
2018-09-04T09:44:57.168Z,27.38
2018-09-04T09:47:25.600Z,28.17
2018-09-04T09:49:54.026Z,28.68
2018-09-04T09:52:22.481Z,29.19
2018-09-04T09:54:50.900Z,29.23
2018-09-04T09:57:19.226Z,29.32
2018-09-04T09:59:47.700Z,30.26
2018-09-04T10:02:21.246Z,30.51
2018-09-04T10:04:49.663Z,29.82
2018-09-04T10:07:18.097Z,30.17
2018-09-04T10:09:46.581Z,30.47
2018-09-04T10:12:15.033Z,30.35
2018-09-04T10:14:43.473Z,30.52
2018-09-04T10:17:11.909Z,30.84
2018-09-04T10:19:40.395Z,30.46
2018-09-04T10:22:08.870Z,31.36
2018-09-04T10:24:37.285Z,30.91
2018-09-04T10:27:06.131Z,30.70
2018-09-04T10:29:34.532Z,31.50
2018-09-04T10:32:02.928Z,31.91
2018-09-04T10:34:31.303Z,31.90
2018-09-04T10:36:59.656Z,30.70
2018-09-04T10:39:33.335Z,31.63
2018-09-04T10:42:02.222Z,31.80
2018-09-04T10:44:32.517Z,31.99
2018-09-04T10:47:01.911Z,32.63
2018-09-04T10:49:30.343Z,31.22
2018-09-04T10:51:58.756Z,31.31
2018-09-04T10:54:27.198Z,31.83
2018-09-04T10:56:55.664Z,31.97
2018-09-04T10:59:24.117Z,31.85
2018-09-04T11:01:52.595Z,32.55
2018-09-04T11:04:20.975Z,32.17
2018-09-04T11:06:49.271Z,32.13
2018-09-04T11:09:17.725Z,31.99
2018-09-04T11:11:46.132Z,31.72
2018-09-04T11:14:14.553Z,31.63
2018-09-04T11:16:43.620Z,31.79
2018-09-04T11:19:12.022Z,31.46
2018-09-04T11:21:40.613Z,31.16
2018-09-04T11:24:09.000Z,30.55
2018-09-04T11:26:37.424Z,31.14
2018-09-04T11:29:07.512Z,30.40
2018-09-04T11:31:35.938Z,30.89
2018-09-04T11:34:04.280Z,30.83
2018-09-04T11:36:32.606Z,31.84
2018-09-04T11:39:00.996Z,32.47
2018-09-04T11:41:29.397Z,32.80
2018-09-04T11:43:57.789Z,32.75
2018-09-04T11:46:26.780Z,32.23
2018-09-04T11:48:55.218Z,32.09
2018-09-04T11:51:23.648Z,32.28
2018-09-04T11:53:52.066Z,32.37
2018-09-04T11:56:20.903Z,32.61
2018-09-04T11:58:49.873Z,32.60
2018-09-04T12:01:20.558Z,32.62
2018-09-04T12:03:49.120Z,32.93
2018-09-04T12:06:17.497Z,33.24
2018-09-04T12:08:46.297Z,32.59
2018-09-04T12:11:14.724Z,33.46
2018-09-04T12:13:43.328Z,32.75
2018-09-04T12:16:11.875Z,33.23
2018-09-04T12:18:40.182Z,33.57
2018-09-04T12:21:10.007Z,34.16
2018-09-04T12:23:38.460Z,33.79
2018-09-04T12:26:08.499Z,34.08
2018-09-04T12:28:37.144Z,33.19
2018-09-04T12:31:06.074Z,33.31
2018-09-04T12:33:34.450Z,33.84
2018-09-04T12:36:02.969Z,34.27
2018-09-04T12:38:32.837Z,36.81
2018-09-04T12:41:06.850Z,37.66
2018-09-04T12:43:37.737Z,38.10
2018-09-04T12:46:06.750Z,39.57
2018-09-04T12:48:35.290Z,41.69
2018-09-04T12:51:04.255Z,43.13
2018-09-04T12:53:33.585Z,43.73
2018-09-04T12:56:02.140Z,43.72
2018-09-04T12:58:30.617Z,44.93
2018-09-04T13:00:59.542Z,42.01
2018-09-04T13:03:29.045Z,42.09
2018-09-04T13:05:57.669Z,43.55
2018-09-04T13:08:28.338Z,43.56
2018-09-04T13:10:56.699Z,43.28
2018-09-04T13:13:25.166Z,42.14
2018-09-04T13:15:58.714Z,43.99
2018-09-04T13:18:27.970Z,46.06
2018-09-04T13:21:05.746Z,46.57
2018-09-04T13:23:35.416Z,46.46
2018-09-04T13:26:04.298Z,46.04
2018-09-04T13:28:33.515Z,44.99
2018-09-04T13:31:01.907Z,46.24
2018-09-04T13:33:30.306Z,42.74
2018-09-04T13:35:58.751Z,44.40
2018-09-04T13:38:27.273Z,44.08
2018-09-04T13:41:00.953Z,44.80
2018-09-04T13:43:29.350Z,45.95
2018-09-04T13:45:58.257Z,47.01
2018-09-04T13:48:29.669Z,47.40
2018-09-04T13:50:58.313Z,45.78
2018-09-04T13:53:27.292Z,45.44
2018-09-04T13:55:55.824Z,45.85
2018-09-04T13:58:24.247Z,45.85
2018-09-04T14:00:52.677Z,46.60
2018-09-04T14:03:21.014Z,47.62
2018-09-04T14:05:49.499Z,48.39
2018-09-04T14:08:18.104Z,46.21
2018-09-04T14:10:46.499Z,47.12
2018-09-04T14:13:14.898Z,46.80
2018-09-04T14:15:43.324Z,46.86
2018-09-04T14:18:12.052Z,44.64
2018-09-04T14:20:40.469Z,44.66
2018-09-04T14:23:09.213Z,44.00
2018-09-04T14:25:37.607Z,44.59
2018-09-04T14:28:06.167Z,44.67
2018-09-04T14:30:34.659Z,43.86
2018-09-04T14:33:03.011Z,42.16
2018-09-04T14:35:31.431Z,40.62
2018-09-04T14:37:59.873Z,39.64
2018-09-04T14:40:28.521Z,39.07
2018-09-04T14:42:57.048Z,38.43
2018-09-04T14:45:25.569Z,38.72
2018-09-04T14:47:53.987Z,38.87
2018-09-04T14:50:22.381Z,38.26
2018-09-04T14:52:50.828Z,37.87
2018-09-04T14:55:19.305Z,37.49
2018-09-04T14:57:47.913Z,38.74
2018-09-04T15:00:16.487Z,40.93
2018-09-04T15:02:44.857Z,42.16
2018-09-04T15:05:13.261Z,43.15
2018-09-04T15:07:41.941Z,43.72
2018-09-04T15:10:10.465Z,44.71
2018-09-04T15:12:39.049Z,45.09
2018-09-04T15:15:08.139Z,45.37
2018-09-04T15:17:36.867Z,45.68
2018-09-04T15:20:05.254Z,45.86
2018-09-04T15:22:34.060Z,45.16
2018-09-04T15:25:02.700Z,45.22
2018-09-04T15:27:31.110Z,45.90
2018-09-04T15:29:59.524Z,46.08
2018-09-04T15:32:27.925Z,46.77
2018-09-04T15:34:56.323Z,46.87
2018-09-04T15:37:24.800Z,46.44
2018-09-04T15:39:53.202Z,46.72
2018-09-04T15:42:21.634Z,45.84
2018-09-04T15:44:50.046Z,43.62
2018-09-04T15:47:18.790Z,41.63
2018-09-04T15:49:48.294Z,40.36
2018-09-04T15:52:17.481Z,38.18
2018-09-04T15:54:45.990Z,37.78
2018-09-04T15:57:15.411Z,37.64
2018-09-04T15:59:43.864Z,37.91
2018-09-04T16:02:12.217Z,37.48
2018-09-04T16:04:40.631Z,37.18
2018-09-04T16:07:09.068Z,37.03
2018-09-04T16:09:37.481Z,37.29
2018-09-04T16:12:05.876Z,37.63
2018-09-04T16:14:34.320Z,38.16
2018-09-04T16:17:02.725Z,38.80
2018-09-04T16:19:31.137Z,39.19
2018-09-04T16:21:59.725Z,39.65
2018-09-04T16:24:28.320Z,39.69
2018-09-04T16:26:56.748Z,39.02
2018-09-04T16:29:25.160Z,38.30
2018-09-04T16:31:53.610Z,37.21
2018-09-04T16:34:22.086Z,36.45
2018-09-04T16:36:50.429Z,35.65
2018-09-04T16:39:19.263Z,35.47
2018-09-04T16:41:47.721Z,35.11
2018-09-04T16:44:16.110Z,35.65
2018-09-04T16:46:44.616Z,36.44
2018-09-04T16:49:13.243Z,36.65
2018-09-04T16:51:41.705Z,36.52
2018-09-04T16:54:10.132Z,35.59
2018-09-04T16:56:38.610Z,34.87
2018-09-04T16:59:07.054Z,34.28
2018-09-04T17:01:35.500Z,33.90
2018-09-04T17:04:04.218Z,33.57
2018-09-04T17:06:32.615Z,33.29
2018-09-04T17:09:01.021Z,32.72
2018-09-04T17:11:29.401Z,32.69
2018-09-04T17:13:57.808Z,32.55
2018-09-04T17:16:26.234Z,32.53
2018-09-04T17:18:54.850Z,32.48
2018-09-04T17:21:23.299Z,32.34
2018-09-04T17:23:51.683Z,32.03
2018-09-04T17:26:20.124Z,31.79
2018-09-04T17:28:48.520Z,31.53
2018-09-04T17:31:17.067Z,31.21
2018-09-04T17:33:45.478Z,30.98
2018-09-04T17:36:13.828Z,30.77
2018-09-04T17:38:42.315Z,30.69
2018-09-04T17:41:10.676Z,30.39
2018-09-04T17:43:39.073Z,30.31
2018-09-04T17:46:07.670Z,30.06
2018-09-04T17:48:36.107Z,29.98
2018-09-04T17:51:04.707Z,29.79
2018-09-04T17:53:33.149Z,29.82
2018-09-04T17:56:01.663Z,29.65
2018-09-04T17:58:30.149Z,29.58
2018-09-04T18:00:58.631Z,29.44
2018-09-04T18:03:26.986Z,29.33
2018-09-04T18:05:55.474Z,29.21
2018-09-04T18:08:23.934Z,29.10
2018-09-04T18:10:52.446Z,28.96
2018-09-04T18:13:21.309Z,28.87
2018-09-04T18:15:49.740Z,28.76
2018-09-04T18:18:18.275Z,28.63
2018-09-04T18:20:46.782Z,28.39
2018-09-04T18:23:16.120Z,28.31
2018-09-04T18:25:44.542Z,28.11
2018-09-04T18:28:13.013Z,28.05
2018-09-04T18:30:41.424Z,27.96
2018-09-04T18:33:09.826Z,27.85
2018-09-04T18:35:38.218Z,27.74
2018-09-04T18:38:06.716Z,27.63
2018-09-04T18:40:35.111Z,27.52
2018-09-04T18:43:03.553Z,27.53
2018-09-04T18:45:42.561Z,27.48
2018-09-04T18:48:11.085Z,27.38
2018-09-04T18:50:39.549Z,27.39
2018-09-04T18:53:07.931Z,27.22
2018-09-04T18:55:36.493Z,27.20
2018-09-04T18:58:05.233Z,27.19
2018-09-04T19:00:33.662Z,27.16
2018-09-04T19:03:02.132Z,27.06
2018-09-04T19:05:30.866Z,26.96
2018-09-04T19:07:59.911Z,26.90
2018-09-04T19:10:28.658Z,26.93
2018-09-04T19:12:57.393Z,26.81
2018-09-04T19:15:26.202Z,26.92
2018-09-04T19:17:54.653Z,27.02
2018-09-04T19:20:23.503Z,26.95
2018-09-04T19:22:52.364Z,26.92
2018-09-04T19:25:20.872Z,26.96
2018-09-04T19:27:49.317Z,26.96
2018-09-04T19:30:17.752Z,26.88
2018-09-04T19:32:46.110Z,26.84
2018-09-04T19:35:14.531Z,26.84
2018-09-04T19:37:42.935Z,26.74
2018-09-04T19:40:11.695Z,26.73
2018-09-04T19:42:41.027Z,26.63
2018-09-04T19:45:09.503Z,26.60
2018-09-04T19:47:38.248Z,26.57
2018-09-04T19:50:07.927Z,26.57
2018-09-04T19:52:36.692Z,26.44
2018-09-04T19:55:05.256Z,26.30
2018-09-04T19:57:33.625Z,26.35
2018-09-04T20:00:02.033Z,26.28
2018-09-04T20:02:30.454Z,26.22
2018-09-04T20:04:58.871Z,26.11
2018-09-04T20:07:27.352Z,26.05
2018-09-04T20:09:55.953Z,26.08
2018-09-04T20:12:24.318Z,25.85
2018-09-04T20:14:53.544Z,25.89
2018-09-04T20:17:22.101Z,25.86
2018-09-04T20:19:50.496Z,25.70
2018-09-04T20:22:18.947Z,25.57
2018-09-04T20:24:47.430Z,25.46
2018-09-04T20:27:15.800Z,25.45
2018-09-04T20:29:44.248Z,25.54
2018-09-04T20:32:12.681Z,25.31
2018-09-04T20:34:41.109Z,25.33
2018-09-04T20:37:09.549Z,25.27
2018-09-04T20:39:38.133Z,25.17
2018-09-04T20:42:06.579Z,24.96
2018-09-04T20:44:35.192Z,25.07
2018-09-04T20:47:03.685Z,24.99
2018-09-04T20:49:32.167Z,25.05
2018-09-04T20:52:00.663Z,24.94
2018-09-04T20:54:29.184Z,24.92
2018-09-04T20:57:32.044Z,24.86
2018-09-04T21:00:13.420Z,24.90
2018-09-04T21:02:53.237Z,24.81
2018-09-04T21:05:33.110Z,24.83
2018-09-04T21:08:43.467Z,24.84
2018-09-04T21:11:11.856Z,24.82
2018-09-04T21:13:40.180Z,24.86
2018-09-04T21:16:08.622Z,25.00
2018-09-04T21:18:37.035Z,24.94
2018-09-04T21:21:05.700Z,25.08
2018-09-04T21:23:34.164Z,25.12
2018-09-04T21:26:02.538Z,24.96
2018-09-04T21:28:30.962Z,24.98
2018-09-04T21:30:59.385Z,25.12
2018-09-04T21:33:28.402Z,25.25
2018-09-04T21:35:56.780Z,25.16
2018-09-04T21:38:25.213Z,25.08
2018-09-04T21:40:53.619Z,25.16
2018-09-04T21:43:21.955Z,25.24
2018-09-04T21:45:50.337Z,25.21
2018-09-04T21:48:18.764Z,25.31
2018-09-04T21:50:47.162Z,24.97
2018-09-04T21:53:15.897Z,25.02
2018-09-04T21:55:44.370Z,25.25
2018-09-04T21:58:12.760Z,25.42
2018-09-04T22:00:41.846Z,25.46
2018-09-04T22:03:10.594Z,25.46
2018-09-04T22:05:40.621Z,25.53
2018-09-04T22:08:09.402Z,25.48
2018-09-04T22:10:37.972Z,25.42
2018-09-04T22:13:07.549Z,25.31
2018-09-04T22:15:35.969Z,25.44
2018-09-04T22:18:04.343Z,25.34
2018-09-04T22:20:33.188Z,25.20
2018-09-04T22:23:01.842Z,25.17
2018-09-04T22:25:30.580Z,24.89
2018-09-04T22:27:59.184Z,24.93
2018-09-04T22:30:27.708Z,24.83
2018-09-04T22:32:56.608Z,24.76
2018-09-04T22:35:25.377Z,24.73
2018-09-04T22:37:54.027Z,24.63
2018-09-04T22:40:22.608Z,24.52
2018-09-04T22:42:51.054Z,24.52
2018-09-04T22:45:19.661Z,24.48
2018-09-04T22:47:48.126Z,24.43
2018-09-04T22:50:21.700Z,24.36
2018-09-04T22:52:50.095Z,23.92
2018-09-04T22:55:19.089Z,23.92
2018-09-04T22:57:47.544Z,23.78
2018-09-04T23:00:16.795Z,24.02
2018-09-04T23:02:45.355Z,23.83
2018-09-04T23:05:14.443Z,23.83
2018-09-04T23:07:43.144Z,24.00
2018-09-04T23:10:11.616Z,23.89
2018-09-04T23:12:40.025Z,23.84
2018-09-04T23:15:08.618Z,23.76
2018-09-04T23:17:37.404Z,23.68
2018-09-04T23:20:06.217Z,23.67
2018-09-04T23:22:34.686Z,23.53
2018-09-04T23:25:03.127Z,23.54
2018-09-04T23:27:31.537Z,23.49
2018-09-04T23:30:00.000Z,23.53
2018-09-04T23:32:28.407Z,23.47
2018-09-04T23:34:56.788Z,23.34
2018-09-04T23:37:25.232Z,23.45
2018-09-04T23:39:53.613Z,23.38
2018-09-04T23:42:22.020Z,23.39
2018-09-04T23:44:50.407Z,23.44
2018-09-04T23:47:18.939Z,23.49
2018-09-04T23:49:47.411Z,23.44
2018-09-04T23:52:16.061Z,23.42
2018-09-04T23:54:44.484Z,23.43
2018-09-04T23:57:12.922Z,23.33
2018-09-04T23:59:41.403Z,23.37
